Time;durP1;ratioP1;P1;durP2;ratioP2;P2;SDS_P1;SDS_P2;PMS_P1;PMS_P2;Temp;Humidity;BMP_temperature;BMP_pressure;BME280_temperature;BME280_humidity;BME280_pressure;Samples;Min_cycle;Max_cycle;Signal;HPM_P1;HPM_P2
2021/10/12 00:01:02;;;;;;;5.72;1.88;;;10.80;99.90;;;;;;5031011;28;20044;-49
2021/10/12 00:03:27;;;;;;;6.68;2.00;;;10.80;99.90;;;;;;5027473;28;20382;-52
2021/10/12 00:05:53;;;;;;;8.30;1.80;;;10.80;99.90;;;;;;5023931;28;20029;-53
2021/10/12 00:08:19;;;;;;;10.20;2.13;;;10.80;99.90;;;;;;5026687;28;20128;-50
2021/10/12 00:10:44;;;;;;;10.57;2.30;;;10.80;99.90;;;;;;5029700;28;20506;-49
2021/10/12 00:13:10;;;;;;;13.35;2.08;;;10.80;99.90;;;;;;5033989;28;20037;-50
2021/10/12 00:15:36;;;;;;;7.82;2.08;;;10.80;99.90;;;;;;5028790;28;20041;-51
2021/10/12 00:18:01;;;;;;;7.05;2.22;;;10.80;99.90;;;;;;5030787;28;20041;-52
2021/10/12 00:20:27;;;;;;;9.77;2.20;;;10.80;99.90;;;;;;5025449;28;20511;-49
2021/10/12 00:22:52;;;;;;;9.65;2.30;;;10.80;99.90;;;;;;5032541;28;20095;-50
2021/10/12 00:25:18;;;;;;;9.65;2.30;;;10.90;99.90;;;;;;5032539;28;20052;-50
2021/10/12 00:27:44;;;;;;;7.00;2.25;;;10.90;99.90;;;;;;5031675;28;20045;-51
2021/10/12 00:30:10;;;;;;;11.13;2.63;;;10.90;99.90;;;;;;5031290;28;20080;-53
2021/10/12 00:32:35;;;;;;;10.48;2.15;;;10.90;99.90;;;;;;5028944;28;20041;-52
2021/10/12 00:35:01;;;;;;;11.63;2.95;;;10.90;99.90;;;;;;5031916;28;20087;-49
2021/10/12 00:37:27;;;;;;;14.23;2.83;;;10.90;99.90;;;;;;5030406;28;20044;-51
2021/10/12 00:39:52;;;;;;;12.38;2.88;;;10.90;99.90;;;;;;5029307;28;20055;-50
2021/10/12 00:42:18;;;;;;;10.48;2.95;;;11.00;99.90;;;;;;5024268;28;20068;-53
2021/10/12 00:44:45;;;;;;;12.23;2.78;;;10.90;99.90;;;;;;5027103;28;20033;-55
2021/10/12 00:47:10;;;;;;;10.73;2.80;;;10.90;99.90;;;;;;5029281;28;20042;-52
2021/10/12 00:49:36;;;;;;;13.32;2.78;;;11.00;99.90;;;;;;5027819;28;20038;-51
2021/10/12 00:52:02;;;;;;;13.25;2.88;;;10.90;99.90;;;;;;5030364;28;20033;-50
2021/10/12 00:54:28;;;;;;;12.10;3.35;;;11.00;99.90;;;;;;5029303;28;20084;-53
2021/10/12 00:56:54;;;;;;;13.93;2.92;;;11.00;99.90;;;;;;5021274;28;20054;-50
2021/10/12 00:59:19;;;;;;;12.48;2.70;;;11.00;99.90;;;;;;5028015;28;20046;-50
2021/10/12 01:01:45;;;;;;;16.73;3.42;;;11.00;99.90;;;;;;5029445;28;20037;-50
2021/10/12 01:04:11;;;;;;;12.07;2.95;;;11.00;99.90;;;;;;5027202;28;20426;-53
2021/10/12 01:06:37;;;;;;;13.38;3.05;;;10.90;99.90;;;;;;5019830;28;20073;-49
2021/10/12 01:09:03;;;;;;;12.48;2.40;;;10.90;99.90;;;;;;5028074;28;20034;-52
2021/10/12 01:11:29;;;;;;;10.13;2.45;;;10.90;99.90;;;;;;5032229;28;20040;-51
2021/10/12 01:13:54;;;;;;;11.20;3.10;;;11.00;99.90;;;;;;5031797;28;20029;-51
2021/10/12 01:16:20;;;;;;;15.55;2.60;;;11.00;99.90;;;;;;5031215;28;20030;-50
2021/10/12 01:18:57;;;;;;;10.82;2.45;;;11.00;99.90;;;;;;5031924;28;20037;-50
2021/10/12 01:21:24;;;;;;;14.93;3.33;;;11.00;99.90;;;;;;5026042;28;20547;-50
2021/10/12 01:23:50;;;;;;;9.43;2.63;;;11.00;99.90;;;;;;5027096;28;20041;-50
2021/10/12 01:26:15;;;;;;;14.35;2.50;;;11.00;99.90;;;;;;5024539;28;20037;-52
2021/10/12 01:28:41;;;;;;;10.68;2.60;;;11.00;99.90;;;;;;5021495;28;20099;-53
2021/10/12 01:31:10;;;;;;;13.07;2.53;;;11.00;99.90;;;;;;5033614;28;20036;-51
2021/10/12 01:33:35;;;;;;;11.65;2.40;;;11.00;99.90;;;;;;5019001;28;20045;-53
2021/10/12 01:36:01;;;;;;;9.77;2.22;;;11.00;99.90;;;;;;5034906;28;20037;-50
2021/10/12 01:38:33;;;;;;;10.27;2.38;;;11.00;99.90;;;;;;5028220;28;20544;-50
2021/10/12 01:40:59;;;;;;;13.45;2.33;;;11.00;99.90;;;;;;5028935;28;20048;-50
2021/10/12 01:43:24;;;;;;;15.82;2.85;;;11.00;99.90;;;;;;5031409;28;20373;-50
2021/10/12 01:45:50;;;;;;;11.68;2.40;;;11.00;99.90;;;;;;5033202;28;20033;-50
2021/10/12 01:48:15;;;;;;;13.77;2.72;;;11.00;99.90;;;;;;5031655;28;20091;-49
2021/10/12 01:50:41;;;;;;;14.20;2.45;;;11.00;99.90;;;;;;5030868;28;20049;-51
2021/10/12 01:53:06;;;;;;;11.02;2.60;;;11.00;99.90;;;;;;5034014;28;20029;-53
2021/10/12 01:55:32;;;;;;;12.80;2.20;;;11.00;99.90;;;;;;5030840;28;20046;-55
2021/10/12 01:57:57;;;;;;;13.23;2.50;;;11.00;99.90;;;;;;5030005;28;20044;-53
2021/10/12 02:00:23;;;;;;;11.05;2.60;;;11.00;99.90;;;;;;5031431;28;20131;-54
2021/10/12 02:02:49;;;;;;;13.40;2.60;;;11.10;99.90;;;;;;5028336;28;20508;-54
2021/10/12 02:05:14;;;;;;;12.00;2.08;;;11.10;99.90;;;;;;5031728;28;20029;-53
2021/10/12 02:07:40;;;;;;;16.40;2.25;;;11.10;99.90;;;;;;5030206;28;20041;-53
2021/10/12 02:10:06;;;;;;;11.32;2.10;;;11.10;99.90;;;;;;5031451;28;20059;-55
2021/10/12 02:12:31;;;;;;;13.80;2.05;;;11.10;99.90;;;;;;5033723;28;20041;-54
2021/10/12 02:14:57;;;;;;;10.02;2.03;;;11.10;99.90;;;;;;5030137;28;20129;-53
2021/10/12 02:17:23;;;;;;;15.38;2.58;;;11.10;99.90;;;;;;5026516;28;20029;-54
2021/10/12 02:19:48;;;;;;;17.60;2.20;;;11.10;99.90;;;;;;5030129;28;20107;-52
2021/10/12 02:22:14;;;;;;;10.02;1.90;;;11.10;99.90;;;;;;5030835;28;20033;-53
2021/10/12 02:24:39;;;;;;;11.77;2.00;;;11.10;99.90;;;;;;5037257;28;20051;-53
2021/10/12 02:27:05;;;;;;;13.52;1.95;;;11.10;99.90;;;;;;5024265;28;20113;-54
2021/10/12 02:29:30;;;;;;;13.20;2.00;;;11.10;99.90;;;;;;5030447;28;20041;-53
2021/10/12 02:31:56;;;;;;;13.45;1.90;;;11.10;99.90;;;;;;5021852;28;20034;-51
2021/10/12 02:34:21;;;;;;;13.40;1.75;;;11.10;99.90;;;;;;5024490;28;20112;-53
2021/10/12 02:36:47;;;;;;;11.02;1.73;;;11.10;99.90;;;;;;5029490;28;20085;-53
2021/10/12 02:39:12;;;;;;;12.45;2.10;;;11.10;99.90;;;;;;5031360;28;20074;-54
2021/10/12 02:41:38;;;;;;;12.73;2.20;;;11.10;99.90;;;;;;5021455;28;20066;-55
2021/10/12 02:44:04;;;;;;;12.30;2.00;;;11.10;99.90;;;;;;5034994;28;20041;-53
2021/10/12 02:46:29;;;;;;;12.95;2.08;;;11.10;99.90;;;;;;5031681;28;20029;-55
2021/10/12 02:48:55;;;;;;;10.07;1.95;;;11.00;99.90;;;;;;5028997;28;20045;-53
2021/10/12 02:51:20;;;;;;;11.48;2.38;;;11.00;99.90;;;;;;5034340;28;20175;-53
2021/10/12 02:53:46;;;;;;;10.57;2.08;;;11.00;99.90;;;;;;5035333;28;20069;-52
2021/10/12 02:56:12;;;;;;;12.18;2.22;;;11.00;99.90;;;;;;5038974;28;20044;-55
2021/10/12 02:58:38;;;;;;;10.90;1.73;;;11.00;99.90;;;;;;5031765;28;20049;-53
2021/10/12 03:01:04;;;;;;;12.40;2.33;;;11.00;99.90;;;;;;5036597;28;20037;-54
2021/10/12 03:04:23;;;;;;;11.43;2.10;;;11.00;99.90;;;;;;5055089;28;20041;-53
2021/10/12 03:06:48;;;;;;;11.68;1.95;;;11.00;99.90;;;;;;5033197;28;20038;-51
2021/10/12 03:09:14;;;;;;;14.73;2.10;;;11.00;99.90;;;;;;5033309;28;20083;-54
2021/10/12 03:11:39;;;;;;;14.52;1.85;;;11.00;99.90;;;;;;5033791;28;20037;-51
2021/10/12 03:14:05;;;;;;;8.07;2.08;;;11.00;99.90;;;;;;5032909;28;20397;-48
2021/10/12 03:16:30;;;;;;;13.70;1.73;;;11.00;99.90;;;;;;5033399;28;20065;-51
2021/10/12 03:18:56;;;;;;;12.70;1.73;;;11.00;99.90;;;;;;5039115;28;20056;-51
2021/10/12 03:21:22;;;;;;;14.05;2.20;;;11.00;99.90;;;;;;5031439;28;20055;-47
2021/10/12 03:23:48;;;;;;;10.43;2.00;;;11.00;99.90;;;;;;5031309;28;20040;-50
2021/10/12 03:26:13;;;;;;;7.85;1.60;;;11.00;99.90;;;;;;5026633;28;20026;-48
2021/10/12 03:28:39;;;;;;;10.07;1.50;;;11.10;99.90;;;;;;5031723;28;20069;-48
2021/10/12 03:31:05;;;;;;;8.93;1.70;;;11.10;99.90;;;;;;5031036;28;20033;-47
2021/10/12 03:33:30;;;;;;;11.63;1.80;;;11.10;99.90;;;;;;5030850;28;20079;-52
2021/10/12 03:35:57;;;;;;;7.03;1.45;;;11.10;99.90;;;;;;5032734;28;20072;-53
2021/10/12 03:38:24;;;;;;;10.02;1.75;;;11.10;99.90;;;;;;5029646;28;21248;-51
2021/10/12 03:40:50;;;;;;;8.90;1.70;;;11.10;99.90;;;;;;5031166;28;20444;-48
2021/10/12 03:43:17;;;;;;;8.55;1.92;;;11.10;99.90;;;;;;5032727;28;20045;-49
2021/10/12 03:45:42;;;;;;;5.68;1.50;;;11.10;99.90;;;;;;5032400;28;20038;-48
2021/10/12 03:48:08;;;;;;;8.80;1.67;;;11.10;99.90;;;;;;5032996;28;20041;-51
2021/10/12 03:50:33;;;;;;;7.97;1.58;;;11.10;99.90;;;;;;5021737;28;20030;-53
2021/10/12 03:52:59;;;;;;;10.88;2.10;;;11.10;99.90;;;;;;5025882;28;20033;-51
2021/10/12 03:55:25;;;;;;;5.38;1.23;;;11.10;99.90;;;;;;5031626;28;20497;-51
2021/10/12 03:57:50;;;;;;;9.82;1.50;;;11.10;99.90;;;;;;5031817;28;20037;-48
2021/10/12 04:00:16;;;;;;;5.90;1.75;;;11.10;99.90;;;;;;5026767;28;20121;-48
2021/10/12 04:02:42;;;;;;;8.90;1.55;;;11.10;99.90;;;;;;5031398;28;20041;-48
2021/10/12 04:05:07;;;;;;;10.25;1.45;;;11.10;99.90;;;;;;5032797;28;20156;-52
2021/10/12 04:07:33;;;;;;;11.32;1.80;;;11.10;99.90;;;;;;5031720;28;20115;-51
2021/10/12 04:09:59;;;;;;;6.78;1.50;;;11.10;99.90;;;;;;5024804;28;20029;-48
2021/10/12 04:12:24;;;;;;;9.98;1.67;;;11.10;99.90;;;;;;5036082;28;20407;-47
2021/10/12 04:14:50;;;;;;;9.35;1.48;;;11.10;99.90;;;;;;5025673;28;20041;-48
2021/10/12 04:17:15;;;;;;;8.50;1.60;;;11.10;99.90;;;;;;5029078;28;20046;-50
2021/10/12 04:19:41;;;;;;;10.13;1.80;;;11.10;99.90;;;;;;5030275;28;20038;-48
2021/10/12 04:22:06;;;;;;;11.43;1.65;;;11.10;99.90;;;;;;5031537;28;20073;-47
2021/10/12 04:24:34;;;;;;;9.05;1.65;;;11.00;99.90;;;;;;5025250;28;20045;-49
2021/10/12 04:26:59;;;;;;;7.72;1.70;;;11.10;99.90;;;;;;5028390;28;20029;-50
2021/10/12 04:29:25;;;;;;;8.73;1.75;;;11.10;99.90;;;;;;5026471;28;20100;-48
2021/10/12 04:31:50;;;;;;;7.68;1.90;;;11.10;99.90;;;;;;5018237;28;20048;-51
2021/10/12 04:34:16;;;;;;;8.85;1.95;;;11.10;99.90;;;;;;5033853;28;20033;-52
2021/10/12 04:36:41;;;;;;;14.95;1.88;;;11.10;99.90;;;;;;5029820;28;20060;-48
2021/10/12 04:39:07;;;;;;;12.75;2.33;;;11.10;99.90;;;;;;5032367;28;20421;-50
2021/10/12 04:41:33;;;;;;;8.30;1.77;;;11.10;99.90;;;;;;5031029;28;20037;-49
2021/10/12 04:44:00;;;;;;;9.68;1.77;;;11.10;99.90;;;;;;5025072;28;20112;-50
2021/10/12 04:46:25;;;;;;;9.15;2.17;;;11.10;99.90;;;;;;5031422;28;20042;-49
2021/10/12 04:48:51;;;;;;;8.27;1.73;;;11.10;99.90;;;;;;5032114;28;20096;-49
2021/10/12 04:51:16;;;;;;;11.25;1.73;;;11.10;99.90;;;;;;5031531;28;20517;-51
2021/10/12 04:53:42;;;;;;;8.73;1.90;;;11.10;99.90;;;;;;5031489;28;20033;-50
2021/10/12 04:56:08;;;;;;;8.57;1.95;;;11.10;99.90;;;;;;5031895;28;20067;-49
2021/10/12 04:58:33;;;;;;;9.70;1.95;;;11.10;99.90;;;;;;5022091;28;20042;-50
2021/10/12 05:01:00;;;;;;;9.45;2.05;;;11.10;99.90;;;;;;5024511;28;20060;-47
2021/10/12 05:03:25;;;;;;;6.20;1.70;;;11.10;99.90;;;;;;5029811;28;20460;-48
2021/10/12 05:05:51;;;;;;;10.38;2.22;;;11.10;99.90;;;;;;5030032;28;20053;-53
2021/10/12 05:08:16;;;;;;;8.90;2.03;;;11.10;99.90;;;;;;5027651;28;20129;-50
2021/10/12 05:10:42;;;;;;;7.95;1.80;;;11.10;99.90;;;;;;5020391;28;20458;-50
2021/10/12 05:13:08;;;;;;;12.50;1.92;;;11.10;99.90;;;;;;5028081;28;20041;-48
2021/10/12 05:15:35;;;;;;;9.10;1.90;;;11.10;99.90;;;;;;5026625;28;20041;-50
2021/10/12 05:18:08;;;;;;;8.70;2.00;;;11.20;99.90;;;;;;5029816;28;20037;-51
2021/10/12 05:20:34;;;;;;;8.68;2.20;;;11.20;99.90;;;;;;5022282;28;20049;-50
2021/10/12 05:22:59;;;;;;;13.85;2.10;;;11.20;99.90;;;;;;5020544;28;20045;-50
2021/10/12 05:25:25;;;;;;;11.48;1.70;;;11.20;99.90;;;;;;5025507;28;20100;-47
2021/10/12 05:27:50;;;;;;;12.07;2.10;;;11.20;99.90;;;;;;5028278;28;20584;-49
2021/10/12 05:30:16;;;;;;;11.52;2.58;;;11.30;99.90;;;;;;5031214;28;20065;-49
2021/10/12 05:32:42;;;;;;;13.20;2.22;;;11.30;99.90;;;;;;5022725;28;20486;-48
2021/10/12 05:35:09;;;;;;;15.25;1.95;;;11.30;99.90;;;;;;5030301;28;20037;-53
2021/10/12 05:37:35;;;;;;;9.18;1.83;;;11.30;99.90;;;;;;5029000;28;20052;-52
2021/10/12 05:40:01;;;;;;;13.52;1.92;;;11.30;99.90;;;;;;5027365;28;20112;-51
2021/10/12 05:42:27;;;;;;;7.57;2.03;;;11.30;99.90;;;;;;5028149;28;20037;-48
2021/10/12 05:44:52;;;;;;;13.55;2.15;;;11.30;99.90;;;;;;5023664;28;20038;-51
2021/10/12 05:47:18;;;;;;;9.77;2.40;;;11.30;99.90;;;;;;5025614;28;20437;-53
2021/10/12 05:49:43;;;;;;;9.27;2.15;;;11.30;99.90;;;;;;5024772;28;20481;-49
2021/10/12 05:52:13;;;;;;;9.43;2.40;;;11.30;99.90;;;;;;5015473;28;20041;-50
2021/10/12 05:54:44;;;;;;;9.70;2.08;;;11.30;99.90;;;;;;5019714;28;20084;-51
2021/10/12 05:57:19;;;;;;;10.90;2.55;;;11.30;99.90;;;;;;5017457;28;20116;-52
2021/10/12 05:59:45;;;;;;;10.32;2.63;;;11.30;99.90;;;;;;5025853;28;20050;-51
2021/10/12 06:02:10;;;;;;;10.40;2.30;;;11.30;99.90;;;;;;5021584;28;20141;-50
2021/10/12 06:04:36;;;;;;;7.80;2.40;;;11.30;99.90;;;;;;5024137;28;20139;-49
2021/10/12 06:07:01;;;;;;;9.25;2.00;;;11.30;99.90;;;;;;5026640;28;20045;-48
2021/10/12 06:09:27;;;;;;;6.25;1.90;;;11.30;99.90;;;;;;5021777;28;20448;-50
2021/10/12 06:11:53;;;;;;;10.60;2.10;;;11.30;99.90;;;;;;5023371;28;20064;-50
2021/10/12 06:14:18;;;;;;;10.15;2.53;;;11.30;99.90;;;;;;5029088;28;20084;-49
2021/10/12 06:16:44;;;;;;;9.55;2.00;;;11.30;99.90;;;;;;5028803;28;20473;-47
2021/10/12 06:19:09;;;;;;;13.88;2.20;;;11.30;99.90;;;;;;5025267;28;20095;-50
2021/10/12 06:21:35;;;;;;;8.40;2.13;;;11.30;99.90;;;;;;5029372;28;20378;-53
2021/10/12 06:24:01;;;;;;;10.55;2.58;;;11.40;99.90;;;;;;5025086;28;20037;-51
2021/10/12 06:26:26;;;;;;;9.55;2.40;;;11.30;99.90;;;;;;5021737;28;20060;-48
2021/10/12 06:28:52;;;;;;;8.48;2.30;;;11.30;99.90;;;;;;5020839;28;20038;-53
2021/10/12 06:31:17;;;;;;;10.13;2.22;;;11.40;99.90;;;;;;5021920;28;20057;-52
2021/10/12 06:33:43;;;;;;;10.80;2.58;;;11.40;99.90;;;;;;5022624;28;20046;-52
2021/10/12 06:36:09;;;;;;;11.70;2.50;;;11.40;99.90;;;;;;5019547;28;20137;-52
2021/10/12 06:38:34;;;;;;;10.35;2.30;;;11.40;99.90;;;;;;5021852;28;20049;-51
2021/10/12 06:41:00;;;;;;;10.15;2.00;;;11.40;99.90;;;;;;5023019;28;20049;-50
2021/10/12 06:43:25;;;;;;;10.63;2.20;;;11.50;99.90;;;;;;5022668;28;20029;-51
2021/10/12 06:45:51;;;;;;;11.32;2.63;;;11.40;99.90;;;;;;5021301;28;20100;-51
2021/10/12 06:48:16;;;;;;;9.60;2.10;;;11.40;99.90;;;;;;5018819;28;20026;-50
2021/10/12 06:50:42;;;;;;;8.27;2.30;;;11.50;99.90;;;;;;5020441;28;20044;-52
2021/10/12 06:53:07;;;;;;;12.60;2.15;;;11.50;99.90;;;;;;5016920;28;20041;-50
2021/10/12 06:55:33;;;;;;;14.38;2.53;;;11.40;99.90;;;;;;5023325;28;20054;-51
2021/10/12 06:57:59;;;;;;;13.35;2.20;;;11.40;99.90;;;;;;5022355;28;20034;-50
2021/10/12 07:00:24;;;;;;;12.98;2.10;;;11.50;99.90;;;;;;5022440;28;20044;-54
2021/10/12 07:02:50;;;;;;;11.40;2.13;;;11.50;99.90;;;;;;5023335;28;20033;-48
2021/10/12 07:05:16;;;;;;;7.28;2.08;;;11.50;99.90;;;;;;5022733;28;20030;-52
2021/10/12 07:07:42;;;;;;;12.52;2.30;;;11.50;99.90;;;;;;5019055;28;20116;-49
2021/10/12 07:10:11;;;;;;;10.55;2.20;;;11.50;99.90;;;;;;5018425;28;20129;-51
2021/10/12 07:12:37;;;;;;;8.88;2.28;;;11.60;99.90;;;;;;5022676;28;20116;-53
2021/10/12 07:15:05;;;;;;;11.73;2.30;;;11.60;99.90;;;;;;5021120;28;20160;-52
2021/10/12 07:17:30;;;;;;;11.13;2.50;;;11.60;99.90;;;;;;5020143;28;20588;-52
2021/10/12 07:19:56;;;;;;;11.43;2.95;;;11.60;99.90;;;;;;5024661;28;20029;-51
2021/10/12 07:22:24;;;;;;;11.60;2.50;;;11.60;99.90;;;;;;5021316;28;20493;-51
2021/10/12 07:24:51;;;;;;;10.18;2.45;;;11.60;99.90;;;;;;5022570;28;20030;-50
2021/10/12 07:27:17;;;;;;;8.93;2.30;;;11.60;99.90;;;;;;5017328;28;20038;-51
2021/10/12 07:29:46;;;;;;;9.27;2.03;;;11.60;99.90;;;;;;5021452;28;20037;-51
2021/10/12 07:32:13;;;;;;;8.65;2.20;;;11.60;99.90;;;;;;5020081;28;20069;-50
2021/10/12 07:34:38;;;;;;;11.48;2.45;;;11.60;99.90;;;;;;5022644;28;20112;-52
2021/10/12 07:37:04;;;;;;;11.07;2.28;;;11.60;99.90;;;;;;5022798;28;20450;-51
2021/10/12 07:39:29;;;;;;;14.45;2.20;;;11.60;99.90;;;;;;5027996;28;20033;-53
2021/10/12 07:41:55;;;;;;;9.98;2.25;;;11.70;99.90;;;;;;5027596;28;20497;-48
2021/10/12 07:44:20;;;;;;;13.07;3.30;;;11.70;99.90;;;;;;5022708;28;20045;-48
2021/10/12 07:46:46;;;;;;;6.60;1.90;;;11.80;99.90;;;;;;5030808;28;20052;-51
2021/10/12 07:49:11;;;;;;;12.35;2.10;;;11.80;99.90;;;;;;5026006;28;20033;-51
2021/10/12 07:51:37;;;;;;;11.80;2.13;;;11.70;99.90;;;;;;5032370;28;20076;-51
2021/10/12 07:54:08;;;;;;;5.93;2.10;;;11.80;99.90;;;;;;5030716;28;20164;-48
2021/10/12 07:56:36;;;;;;;8.32;2.00;;;11.80;99.90;;;;;;5032597;28;20041;-50
2021/10/12 07:59:07;;;;;;;12.85;2.70;;;11.70;99.90;;;;;;5023192;28;20129;-52
2021/10/12 08:01:34;;;;;;;12.07;2.13;;;11.70;99.90;;;;;;5033030;28;20040;-53
2021/10/12 08:04:00;;;;;;;14.85;2.33;;;11.70;99.90;;;;;;5031201;28;21730;-51
2021/10/12 08:06:27;;;;;;;7.57;1.88;;;11.70;99.90;;;;;;5027766;28;20404;-51
2021/10/12 08:08:53;;;;;;;9.68;1.98;;;11.70;99.90;;;;;;5031946;28;20099;-51
2021/10/12 08:11:23;;;;;;;9.48;1.65;;;11.70;99.90;;;;;;5030298;28;20045;-51
2021/10/12 08:13:52;;;;;;;6.15;1.60;;;11.70;99.90;;;;;;5016325;28;20398;-51
2021/10/12 08:16:20;;;;;;;7.97;1.80;;;11.70;99.90;;;;;;5031005;28;20056;-51
2021/10/12 08:18:46;;;;;;;5.50;1.70;;;11.70;99.90;;;;;;5024546;28;20087;-51
2021/10/12 08:21:12;;;;;;;9.68;2.50;;;11.80;99.90;;;;;;5030689;28;20061;-51
2021/10/12 08:23:38;;;;;;;12.55;4.50;;;11.70;99.90;;;;;;5025684;28;20048;-47
2021/10/12 08:26:03;;;;;;;14.50;4.15;;;11.80;99.90;;;;;;5018414;28;20056;-49
2021/10/12 08:28:29;;;;;;;10.75;4.38;;;11.90;99.90;;;;;;5025025;28;20112;-51
2021/10/12 08:30:54;;;;;;;10.75;3.25;;;11.80;99.90;;;;;;5016179;28;20482;-48
2021/10/12 08:33:20;;;;;;;7.70;1.58;;;11.80;99.90;;;;;;5030130;28;20636;-52
2021/10/12 08:35:45;;;;;;;5.07;1.98;;;11.90;99.90;;;;;;5022412;28;20042;-48
2021/10/12 08:38:16;;;;;;;3.78;1.25;;;12.00;99.90;;;;;;5028603;28;20069;-51
2021/10/12 08:40:44;;;;;;;8.55;1.50;;;12.00;99.90;;;;;;5023453;28;20045;-49
2021/10/12 08:43:09;;;;;;;5.45;1.20;;;11.80;99.90;;;;;;5015731;28;20030;-51
2021/10/12 08:45:37;;;;;;;11.10;2.30;;;11.80;99.90;;;;;;5016519;28;20094;-52
2021/10/12 08:48:05;;;;;;;7.28;2.53;;;11.70;99.90;;;;;;5026493;28;20038;-47
2021/10/12 08:50:31;;;;;;;10.02;2.42;;;11.60;99.90;;;;;;4995537;28;20030;-52
2021/10/12 08:52:57;;;;;;;7.03;2.47;;;11.60;99.90;;;;;;5023753;28;20032;-51
2021/10/12 08:58:47;;;;;;;9.15;4.20;;;11.60;99.90;;;;;;5516987;22;20045;-49
2021/10/12 09:01:16;;;;;;;9.25;3.30;;;11.50;99.90;;;;;;5023340;28;20042;-49
2021/10/12 09:04:08;;;;;;;11.93;3.70;;;11.50;99.90;;;;;;5024927;28;20037;-48
2021/10/12 09:06:35;;;;;;;9.90;1.45;;;11.50;99.90;;;;;;5023319;28;20510;-47
2021/10/12 09:09:03;;;;;;;11.70;2.00;;;11.50;99.90;;;;;;5020985;28;20087;-48
2021/10/12 09:11:30;;;;;;;7.57;1.90;;;11.60;99.90;;;;;;5037733;22;20053;-52
2021/10/12 09:14:04;;;;;;;10.07;3.72;;;11.60;99.90;;;;;;5044261;28;20477;-53
2021/10/12 09:16:50;;;;;;;15.68;10.15;;;11.70;99.90;;;;;;5036115;28;20046;-52
2021/10/12 09:19:19;;;;;;;9.48;4.75;;;11.80;99.90;;;;;;5043087;28;20045;-52
2021/10/12 09:21:52;;;;;;;7.43;1.40;;;11.90;99.90;;;;;;5046391;28;20136;-52
2021/10/12 09:24:20;;;;;;;7.35;1.40;;;11.90;99.90;;;;;;5022765;28;20057;-52
2021/10/12 09:26:54;;;;;;;8.65;1.50;;;12.00;99.90;;;;;;5018140;28;20796;-53
2021/10/12 09:29:29;;;;;;;14.00;3.58;;;12.00;99.90;;;;;;5022371;28;20041;-53
2021/10/12 09:31:56;;;;;;;9.15;1.40;;;12.00;99.90;;;;;;5019950;28;20033;-51
2021/10/12 09:34:28;;;;;;;5.93;1.50;;;12.10;99.90;;;;;;5017886;28;20489;-53
2021/10/12 09:36:54;;;;;;;8.18;1.75;;;12.10;99.90;;;;;;5025070;28;20046;-50
2021/10/12 09:39:37;;;;;;;4.65;1.65;;;12.20;99.90;;;;;;5029527;28;20040;-52
2021/10/12 09:42:04;;;;;;;9.95;1.48;;;12.30;99.90;;;;;;5020650;28;20095;-52
2021/10/12 09:44:30;;;;;;;9.02;1.60;;;12.30;99.90;;;;;;5026071;28;20038;-52
2021/10/12 09:47:08;;;;;;;6.15;1.45;;;12.40;99.90;;;;;;5026220;28;20042;-53
2021/10/12 09:49:35;;;;;;;5.57;1.80;;;12.60;99.90;;;;;;5024701;28;20037;-53
2021/10/12 09:52:06;;;;;;;6.28;1.65;;;12.60;99.90;;;;;;5027624;28;20061;-52
2021/10/12 09:54:37;;;;;;;14.95;2.90;;;12.70;99.90;;;;;;5016903;28;20456;-50
2021/10/12 09:57:05;;;;;;;6.63;1.60;;;12.70;99.90;;;;;;5022116;28;20056;-52
2021/10/12 09:59:32;;;;;;;7.20;1.70;;;12.80;99.90;;;;;;5019044;28;20068;-53
2021/10/12 10:01:59;;;;;;;12.70;1.45;;;12.90;99.90;;;;;;5023266;28;20025;-52
2021/10/12 10:04:27;;;;;;;5.18;1.40;;;13.00;99.90;;;;;;5025989;28;20297;-53
2021/10/12 10:06:57;;;;;;;10.20;1.98;;;13.00;99.90;;;;;;5021379;28;21638;-53
2021/10/12 10:09:24;;;;;;;6.78;1.75;;;13.00;99.90;;;;;;5017516;28;20038;-53
2021/10/12 10:11:50;;;;;;;7.43;1.50;;;13.00;99.90;;;;;;5017257;28;20076;-53
2021/10/12 10:14:18;;;;;;;10.15;1.25;;;13.00;99.90;;;;;;5022754;28;20046;-53
2021/10/12 10:16:51;;;;;;;5.43;1.80;;;13.10;99.90;;;;;;5017972;28;20034;-53
2021/10/12 10:19:40;;;;;;;7.35;1.35;;;13.10;99.90;;;;;;5019288;28;20046;-53
2021/10/12 10:22:05;;;;;;;12.35;1.73;;;13.20;99.90;;;;;;5019420;28;20085;-51
2021/10/12 10:24:34;;;;;;;7.38;1.77;;;13.20;99.90;;;;;;5018343;28;20501;-53
2021/10/12 10:27:00;;;;;;;7.75;1.42;;;13.30;99.90;;;;;;5022578;28;20045;-53
2021/10/12 10:29:37;;;;;;;7.10;1.25;;;13.30;99.90;;;;;;5023958;28;20037;-52
2021/10/12 10:32:23;;;;;;;7.85;1.40;;;13.20;99.90;;;;;;5017838;28;20058;-53
2021/10/12 10:35:00;;;;;;;8.05;1.50;;;13.30;99.90;;;;;;5021402;28;20637;-52
2021/10/12 10:37:28;;;;;;;15.82;1.60;;;13.30;99.90;;;;;;5018197;28;20037;-53
2021/10/12 10:40:02;;;;;;;8.50;2.63;;;13.30;98.70;;;;;;5026018;28;20045;-53
2021/10/12 10:42:27;;;;;;;11.30;1.70;;;13.20;99.20;;;;;;5023543;28;20074;-53
2021/10/12 10:45:00;;;;;;;9.77;1.70;;;13.20;99.50;;;;;;5017890;28;20085;-51
2021/10/12 10:47:41;;;;;;;11.63;2.05;;;13.20;99.80;;;;;;5018265;28;20128;-53
2021/10/12 10:50:13;;;;;;;11.50;1.98;;;13.10;99.40;;;;;;5016873;28;20033;-52
2021/10/12 10:52:47;;;;;;;7.93;1.63;;;13.20;99.30;;;;;;5019679;28;20560;-53
2021/10/12 10:55:20;;;;;;;8.00;2.00;;;13.20;99.60;;;;;;5023257;28;20029;-53
2021/10/12 10:58:04;;;;;;;9.63;1.90;;;13.20;99.40;;;;;;5013590;28;20485;-53
2021/10/12 11:00:42;;;;;;;8.32;1.40;;;13.20;98.40;;;;;;5026776;28;20072;-51
2021/10/12 11:03:40;;;;;;;7.45;1.60;;;13.30;95.50;;;;;;5023852;28;20038;-51
2021/10/12 11:06:13;;;;;;;8.90;1.40;;;13.20;96.70;;;;;;5021858;28;20739;-53
2021/10/12 11:08:53;;;;;;;7.15;1.55;;;13.10;96.40;;;;;;5022861;28;20049;-52
2021/10/12 11:11:18;;;;;;;8.38;1.88;;;13.00;97.10;;;;;;5018841;28;20532;-52
2021/10/12 11:13:44;;;;;;;6.18;1.23;;;13.10;94.50;;;;;;5010237;28;20041;-51
2021/10/12 11:16:12;;;;;;;9.27;2.10;;;13.10;94.60;;;;;;5017620;28;20052;-53
2021/10/12 11:18:39;;;;;;;4.75;1.25;;;13.10;94.00;;;;;;5029249;28;20042;-51
2021/10/12 11:21:16;;;;;;;7.18;1.52;;;13.10;94.60;;;;;;5024482;28;20135;-50
2021/10/12 11:23:48;;;;;;;9.13;1.30;;;13.20;93.80;;;;;;5026037;28;20046;-53
2021/10/12 11:26:18;;;;;;;6.05;1.50;;;13.20;93.80;;;;;;5030947;28;20132;-54
2021/10/12 11:28:51;;;;;;;7.68;1.48;;;13.20;91.80;;;;;;5036265;28;20045;-52
2021/10/12 11:31:19;;;;;;;6.05;1.00;;;13.30;90.90;;;;;;5028618;28;20037;-53
2021/10/12 11:33:50;;;;;;;6.88;1.13;;;13.20;91.60;;;;;;5032189;28;20044;-53
2021/10/12 11:36:21;;;;;;;8.38;1.58;;;13.20;87.20;;;;;;5032548;28;20038;-53
2021/10/12 11:38:55;;;;;;;5.82;1.17;;;13.00;88.00;;;;;;5029387;28;20524;-54
2021/10/12 11:41:38;;;;;;;6.53;1.10;;;12.90;88.30;;;;;;5033749;28;20068;-52
2021/10/12 11:44:21;;;;;;;8.07;1.50;;;12.80;90.30;;;;;;5025617;28;20035;-53
2021/10/12 11:46:47;;;;;;;;;;;12.90;90.70;;;;;;5022314;28;20084;-54
2021/10/12 11:49:15;;;;;;;5.85;1.33;;;13.00;91.10;;;;;;5026713;28;19999;-54
2021/10/12 11:51:45;;;;;;;8.00;1.10;;;13.10;89.30;;;;;;5032029;28;20056;-53
2021/10/12 11:54:11;;;;;;;5.63;1.40;;;13.10;90.10;;;;;;5022412;28;20500;-53
2021/10/12 11:56:38;;;;;;;8.98;1.13;;;13.10;90.20;;;;;;5032835;28;20045;-54
2021/10/12 11:59:06;;;;;;;5.28;1.20;;;13.10;88.10;;;;;;5025502;28;20175;-53
2021/10/12 12:01:34;;;;;;;4.53;1.40;;;13.10;88.60;;;;;;5033105;28;20501;-53
2021/10/12 12:04:01;;;;;;;7.18;1.35;;;13.10;89.30;;;;;;5029682;28;20116;-54
2021/10/12 12:06:29;;;;;;;5.38;1.33;;;13.10;87.70;;;;;;5032505;28;20077;-54
2021/10/12 12:08:59;;;;;;;8.07;1.80;;;13.10;84.00;;;;;;5031173;28;20066;-54
2021/10/12 12:11:28;;;;;;;7.07;1.77;;;13.10;84.60;;;;;;5019926;28;20033;-52
2021/10/12 12:13:54;;;;;;;7.15;1.50;;;13.10;82.40;;;;;;5027320;28;20113;-53
2021/10/12 12:16:21;;;;;;;5.75;1.98;;;13.20;83.20;;;;;;5021379;28;20485;-54
2021/10/12 12:18:47;;;;;;;6.70;1.67;;;13.20;82.80;;;;;;5031898;28;20037;-53
2021/10/12 12:21:14;;;;;;;7.10;1.90;;;13.20;84.70;;;;;;5029438;28;20061;-53
2021/10/12 12:23:47;;;;;;;5.18;1.48;;;13.30;83.50;;;;;;5035230;28;20045;-53
2021/10/12 12:26:24;;;;;;;8.43;1.83;;;13.40;84.20;;;;;;5027491;28;20041;-51
2021/10/12 12:28:50;;;;;;;7.18;2.20;;;13.40;84.30;;;;;;5023644;28;20048;-55
2021/10/12 12:31:20;;;;;;;8.50;1.65;;;13.50;83.30;;;;;;5035975;28;20041;-55
2021/10/12 12:33:48;;;;;;;7.00;2.03;;;13.50;83.80;;;;;;5028496;28;20501;-52
2021/10/12 12:36:15;;;;;;;4.60;1.20;;;13.50;82.80;;;;;;5031820;28;20179;-54
2021/10/12 12:38:42;;;;;;;4.50;1.30;;;13.70;78.90;;;;;;5029274;28;20041;-54
2021/10/12 12:41:19;;;;;;;7.28;1.70;;;13.60;80.40;;;;;;5030925;28;20041;-53
2021/10/12 12:43:53;;;;;;;3.08;1.40;;;13.40;82.70;;;;;;5020542;28;20038;-53
2021/10/12 12:46:20;;;;;;;15.88;7.40;;;13.10;84.10;;;;;;5019902;28;20049;-54
2021/10/12 12:49:05;;;;;;;6.90;2.38;;;13.00;85.10;;;;;;5029923;28;20038;-53